sensor_id;sensor_type;location;lat;lon;timestamp;P1;durP1;ratioP1;P2;durP2;ratioP2
7903;SDS011;3997;48.416;8.512;2023-09-08T00:01:37;8.63;;;7.78;;
7903;SDS011;3997;48.416;8.512;2023-09-08T00:04:04;8.15;;;7.47;;
7903;SDS011;3997;48.416;8.512;2023-09-08T00:06:31;9.60;;;7.93;;
7903;SDS011;3997;48.416;8.512;2023-09-08T00:08:57;8.30;;;7.72;;
7903;SDS011;3997;48.416;8.512;2023-09-08T00:11:24;8.65;;;7.95;;
7903;SDS011;3997;48.416;8.512;2023-09-08T00:13:52;8.73;;;7.82;;
7903;SDS011;3997;48.416;8.512;2023-09-08T00:16:18;8.73;;;7.93;;
7903;SDS011;3997;48.416;8.512;2023-09-08T00:18:45;9.25;;;7.88;;
7903;SDS011;3997;48.416;8.512;2023-09-08T00:21:11;9.93;;;7.90;;
7903;SDS011;3997;48.416;8.512;2023-09-08T00:23:37;9.20;;;7.72;;
7903;SDS011;3997;48.416;8.512;2023-09-08T00:26:04;8.48;;;7.72;;
7903;SDS011;3997;48.416;8.512;2023-09-08T00:28:30;7.72;;;7.13;;
7903;SDS011;3997;48.416;8.512;2023-09-08T00:30:58;7.63;;;6.90;;
7903;SDS011;3997;48.416;8.512;2023-09-08T00:33:26;8.35;;;7.50;;
7903;SDS011;3997;48.416;8.512;2023-09-08T00:35:52;9.10;;;8.00;;
7903;SDS011;3997;48.416;8.512;2023-09-08T00:38:22;8.20;;;7.60;;
7903;SDS011;3997;48.416;8.512;2023-09-08T00:40:48;8.40;;;7.65;;
7903;SDS011;3997;48.416;8.512;2023-09-08T00:43:15;8.88;;;8.18;;
7903;SDS011;3997;48.416;8.512;2023-09-08T00:45:42;8.30;;;7.53;;
7903;SDS011;3997;48.416;8.512;2023-09-08T00:48:10;8.32;;;7.68;;
7903;SDS011;3997;48.416;8.512;2023-09-08T00:50:36;9.05;;;8.25;;
7903;SDS011;3997;48.416;8.512;2023-09-08T00:53:03;8.25;;;7.45;;
7903;SDS011;3997;48.416;8.512;2023-09-08T00:55:30;8.02;;;7.25;;
7903;SDS011;3997;48.416;8.512;2023-09-08T00:57:57;7.68;;;7.18;;
7903;SDS011;3997;48.416;8.512;2023-09-08T01:00:23;8.20;;;7.40;;
7903;SDS011;3997;48.416;8.512;2023-09-08T01:02:50;8.68;;;7.97;;
7903;SDS011;3997;48.416;8.512;2023-09-08T01:05:18;8.52;;;7.82;;
7903;SDS011;3997;48.416;8.512;2023-09-08T01:07:45;8.02;;;7.43;;
7903;SDS011;3997;48.416;8.512;2023-09-08T01:10:12;7.90;;;7.30;;
7903;SDS011;3997;48.416;8.512;2023-09-08T01:12:39;8.20;;;7.60;;
7903;SDS011;3997;48.416;8.512;2023-09-08T01:15:05;8.38;;;7.57;;
7903;SDS011;3997;48.416;8.512;2023-09-08T01:17:33;8.98;;;8.10;;
7903;SDS011;3997;48.416;8.512;2023-09-08T01:20:01;8.68;;;7.97;;
7903;SDS011;3997;48.416;8.512;2023-09-08T01:25:15;8.00;;;7.28;;
7903;SDS011;3997;48.416;8.512;2023-09-08T01:27:44;8.52;;;7.78;;
7903;SDS011;3997;48.416;8.512;2023-09-08T01:30:11;7.93;;;7.32;;
7903;SDS011;3997;48.416;8.512;2023-09-08T01:32:38;8.02;;;7.32;;
7903;SDS011;3997;48.416;8.512;2023-09-08T01:35:06;8.23;;;6.95;;
7903;SDS011;3997;48.416;8.512;2023-09-08T01:37:33;8.73;;;7.45;;
7903;SDS011;3997;48.416;8.512;2023-09-08T01:39:59;16.70;;;7.00;;
7903;SDS011;3997;48.416;8.512;2023-09-08T01:42:27;8.45;;;7.68;;
7903;SDS011;3997;48.416;8.512;2023-09-08T01:44:53;8.50;;;7.90;;
7903;SDS011;3997;48.416;8.512;2023-09-08T01:47:20;8.18;;;7.47;;
7903;SDS011;3997;48.416;8.512;2023-09-08T01:49:46;7.75;;;7.05;;
7903;SDS011;3997;48.416;8.512;2023-09-08T01:52:13;8.10;;;7.43;;
7903;SDS011;3997;48.416;8.512;2023-09-08T01:54:39;8.43;;;7.63;;
7903;SDS011;3997;48.416;8.512;2023-09-08T01:57:06;9.43;;;8.25;;
7903;SDS011;3997;48.416;8.512;2023-09-08T01:59:33;8.50;;;7.70;;
7903;SDS011;3997;48.416;8.512;2023-09-08T02:02:02;8.38;;;7.20;;
7903;SDS011;3997;48.416;8.512;2023-09-08T02:04:28;7.93;;;7.22;;
7903;SDS011;3997;48.416;8.512;2023-09-08T02:06:54;8.30;;;7.63;;
7903;SDS011;3997;48.416;8.512;2023-09-08T02:09:21;7.90;;;7.30;;
7903;SDS011;3997;48.416;8.512;2023-09-08T02:11:48;8.52;;;7.82;;
7903;SDS011;3997;48.416;8.512;2023-09-08T02:14:14;8.05;;;7.45;;
7903;SDS011;3997;48.416;8.512;2023-09-08T02:16:42;8.60;;;7.90;;
7903;SDS011;3997;48.416;8.512;2023-09-08T02:19:08;8.63;;;7.88;;
7903;SDS011;3997;48.416;8.512;2023-09-08T02:21:34;7.97;;;7.28;;
7903;SDS011;3997;48.416;8.512;2023-09-08T02:24:01;8.98;;;8.25;;
7903;SDS011;3997;48.416;8.512;2023-09-08T02:26:27;8.52;;;7.72;;
7903;SDS011;3997;48.416;8.512;2023-09-08T02:28:57;8.43;;;7.70;;
7903;SDS011;3997;48.416;8.512;2023-09-08T02:31:23;8.15;;;7.63;;
7903;SDS011;3997;48.416;8.512;2023-09-08T02:33:51;9.70;;;8.60;;
7903;SDS011;3997;48.416;8.512;2023-09-08T02:36:17;8.07;;;7.38;;
7903;SDS011;3997;48.416;8.512;2023-09-08T02:38:50;8.20;;;7.60;;
7903;SDS011;3997;48.416;8.512;2023-09-08T02:41:16;8.35;;;7.75;;
7903;SDS011;3997;48.416;8.512;2023-09-08T02:43:43;8.98;;;8.18;;
7903;SDS011;3997;48.416;8.512;2023-09-08T02:46:09;8.80;;;8.00;;
7903;SDS011;3997;48.416;8.512;2023-09-08T02:48:36;8.10;;;7.40;;
7903;SDS011;3997;48.416;8.512;2023-09-08T02:51:03;9.02;;;8.23;;
7903;SDS011;3997;48.416;8.512;2023-09-08T02:53:30;8.65;;;7.85;;
7903;SDS011;3997;48.416;8.512;2023-09-08T02:55:56;8.60;;;7.90;;
7903;SDS011;3997;48.416;8.512;2023-09-08T02:58:23;8.52;;;7.82;;
7903;SDS011;3997;48.416;8.512;2023-09-08T03:00:49;8.40;;;7.70;;
7903;SDS011;3997;48.416;8.512;2023-09-08T03:03:17;8.43;;;7.60;;
7903;SDS011;3997;48.416;8.512;2023-09-08T03:05:43;8.30;;;7.50;;
7903;SDS011;3997;48.416;8.512;2023-09-08T03:08:11;8.00;;;7.40;;
7903;SDS011;3997;48.416;8.512;2023-09-08T03:10:38;8.52;;;7.82;;
7903;SDS011;3997;48.416;8.512;2023-09-08T03:13:04;8.80;;;8.00;;
7903;SDS011;3997;48.416;8.512;2023-09-08T03:15:31;8.63;;;7.82;;
7903;SDS011;3997;48.416;8.512;2023-09-08T03:17:58;8.30;;;7.65;;
7903;SDS011;3997;48.416;8.512;2023-09-08T03:20:24;8.23;;;7.43;;
7903;SDS011;3997;48.416;8.512;2023-09-08T03:22:51;9.00;;;8.30;;
7903;SDS011;3997;48.416;8.512;2023-09-08T03:25:19;8.98;;;8.27;;
7903;SDS011;3997;48.416;8.512;2023-09-08T03:27:45;10.43;;;9.40;;
7903;SDS011;3997;48.416;8.512;2023-09-08T03:30:12;9.65;;;8.85;;
7903;SDS011;3997;48.416;8.512;2023-09-08T03:32:39;9.45;;;8.60;;
7903;SDS011;3997;48.416;8.512;2023-09-08T03:35:06;10.27;;;9.00;;
7903;SDS011;3997;48.416;8.512;2023-09-08T03:37:33;9.20;;;8.55;;
7903;SDS011;3997;48.416;8.512;2023-09-08T03:39:59;9.00;;;8.30;;
7903;SDS011;3997;48.416;8.512;2023-09-08T03:42:27;9.50;;;8.80;;
7903;SDS011;3997;48.416;8.512;2023-09-08T03:44:54;9.43;;;8.63;;
7903;SDS011;3997;48.416;8.512;2023-09-08T03:47:23;9.38;;;8.57;;
7903;SDS011;3997;48.416;8.512;2023-09-08T03:49:49;9.05;;;8.32;;
7903;SDS011;3997;48.416;8.512;2023-09-08T03:52:16;8.90;;;8.20;;
7903;SDS011;3997;48.416;8.512;2023-09-08T03:54:42;8.77;;;8.02;;
7903;SDS011;3997;48.416;8.512;2023-09-08T03:57:09;9.20;;;8.50;;
7903;SDS011;3997;48.416;8.512;2023-09-08T03:59:37;8.95;;;8.25;;
7903;SDS011;3997;48.416;8.512;2023-09-08T04:02:03;10.55;;;7.13;;
7903;SDS011;3997;48.416;8.512;2023-09-08T04:04:30;8.65;;;7.90;;
7903;SDS011;3997;48.416;8.512;2023-09-08T04:06:56;9.50;;;8.60;;
7903;SDS011;3997;48.416;8.512;2023-09-08T04:09:23;9.20;;;8.50;;
7903;SDS011;3997;48.416;8.512;2023-09-08T04:11:49;9.18;;;8.43;;
7903;SDS011;3997;48.416;8.512;2023-09-08T04:14:15;9.40;;;8.70;;
7903;SDS011;3997;48.416;8.512;2023-09-08T04:16:43;9.95;;;8.93;;
7903;SDS011;3997;48.416;8.512;2023-09-08T04:19:10;9.20;;;8.30;;
7903;SDS011;3997;48.416;8.512;2023-09-08T04:21:36;9.90;;;8.98;;
7903;SDS011;3997;48.416;8.512;2023-09-08T04:24:04;9.23;;;8.48;;
7903;SDS011;3997;48.416;8.512;2023-09-08T04:26:31;9.10;;;8.30;;
7903;SDS011;3997;48.416;8.512;2023-09-08T04:28:58;9.52;;;8.82;;
7903;SDS011;3997;48.416;8.512;2023-09-08T04:31:24;9.18;;;8.40;;
7903;SDS011;3997;48.416;8.512;2023-09-08T04:33:53;8.95;;;8.15;;
7903;SDS011;3997;48.416;8.512;2023-09-08T04:36:19;9.27;;;8.57;;
7903;SDS011;3997;48.416;8.512;2023-09-08T04:38:46;8.88;;;7.82;;
7903;SDS011;3997;48.416;8.512;2023-09-08T04:41:12;8.77;;;7.97;;
7903;SDS011;3997;48.416;8.512;2023-09-08T04:43:38;8.60;;;7.75;;
7903;SDS011;3997;48.416;8.512;2023-09-08T04:46:05;8.82;;;8.10;;
7903;SDS011;3997;48.416;8.512;2023-09-08T04:48:31;10.88;;;8.23;;
7903;SDS011;3997;48.416;8.512;2023-09-08T04:50:59;8.90;;;8.10;;
7903;SDS011;3997;48.416;8.512;2023-09-08T04:53:26;9.07;;;8.20;;
7903;SDS011;3997;48.416;8.512;2023-09-08T04:55:52;9.88;;;8.98;;
7903;SDS011;3997;48.416;8.512;2023-09-08T04:58:19;9.60;;;8.68;;
7903;SDS011;3997;48.416;8.512;2023-09-08T05:00:45;9.13;;;8.38;;
7903;SDS011;3997;48.416;8.512;2023-09-08T05:03:11;8.68;;;8.07;;
7903;SDS011;3997;48.416;8.512;2023-09-08T05:05:38;9.77;;;8.82;;
7903;SDS011;3997;48.416;8.512;2023-09-08T05:08:06;9.52;;;8.80;;
7903;SDS011;3997;48.416;8.512;2023-09-08T05:10:32;9.65;;;8.82;;
7903;SDS011;3997;48.416;8.512;2023-09-08T05:12:59;10.13;;;8.70;;
7903;SDS011;3997;48.416;8.512;2023-09-08T05:15:25;9.27;;;8.38;;
7903;SDS011;3997;48.416;8.512;2023-09-08T05:17:52;9.30;;;8.55;;
7903;SDS011;3997;48.416;8.512;2023-09-08T05:20:19;8.32;;;7.60;;
7903;SDS011;3997;48.416;8.512;2023-09-08T05:22:45;8.82;;;8.02;;
7903;SDS011;3997;48.416;8.512;2023-09-08T05:25:13;9.50;;;8.70;;
7903;SDS011;3997;48.416;8.512;2023-09-08T05:27:39;9.35;;;8.48;;
7903;SDS011;3997;48.416;8.512;2023-09-08T05:30:06;9.15;;;8.30;;
7903;SDS011;3997;48.416;8.512;2023-09-08T05:32:33;10.68;;;8.40;;
7903;SDS011;3997;48.416;8.512;2023-09-08T05:34:59;9.52;;;8.77;;
7903;SDS011;3997;48.416;8.512;2023-09-08T05:37:26;9.68;;;8.85;;
7903;SDS011;3997;48.416;8.512;2023-09-08T05:39:52;9.38;;;8.63;;
7903;SDS011;3997;48.416;8.512;2023-09-08T05:42:20;9.48;;;8.65;;
7903;SDS011;3997;48.416;8.512;2023-09-08T05:44:46;10.43;;;8.65;;
7903;SDS011;3997;48.416;8.512;2023-09-08T05:47:13;9.48;;;8.48;;
7903;SDS011;3997;48.416;8.512;2023-09-08T05:49:39;9.38;;;8.57;;
7903;SDS011;3997;48.416;8.512;2023-09-08T05:52:06;9.07;;;8.32;;
7903;SDS011;3997;48.416;8.512;2023-09-08T05:54:34;9.82;;;8.93;;
7903;SDS011;3997;48.416;8.512;2023-09-08T05:57:00;10.10;;;9.20;;
7903;SDS011;3997;48.416;8.512;2023-09-08T05:59:29;9.95;;;9.05;;
7903;SDS011;3997;48.416;8.512;2023-09-08T06:01:55;9.20;;;8.50;;
7903;SDS011;3997;48.416;8.512;2023-09-08T06:04:21;9.20;;;8.32;;
7903;SDS011;3997;48.416;8.512;2023-09-08T06:06:48;8.68;;;7.97;;
7903;SDS011;3997;48.416;8.512;2023-09-08T06:09:14;8.77;;;8.07;;
7903;SDS011;3997;48.416;8.512;2023-09-08T06:11:41;9.73;;;8.85;;
7903;SDS011;3997;48.416;8.512;2023-09-08T06:14:08;9.40;;;8.70;;
7903;SDS011;3997;48.416;8.512;2023-09-08T06:16:35;9.48;;;8.63;;
7903;SDS011;3997;48.416;8.512;2023-09-08T06:19:02;9.68;;;8.88;;
7903;SDS011;3997;48.416;8.512;2023-09-08T06:21:29;9.50;;;8.80;;
7903;SDS011;3997;48.416;8.512;2023-09-08T06:23:55;9.27;;;8.57;;
7903;SDS011;3997;48.416;8.512;2023-09-08T06:26:22;9.70;;;8.90;;
7903;SDS011;3997;48.416;8.512;2023-09-08T06:28:49;9.80;;;9.10;;
7903;SDS011;3997;48.416;8.512;2023-09-08T06:31:16;9.40;;;8.52;;
7903;SDS011;3997;48.416;8.512;2023-09-08T06:33:44;9.35;;;8.43;;
7903;SDS011;3997;48.416;8.512;2023-09-08T06:36:11;10.25;;;9.45;;
7903;SDS011;3997;48.416;8.512;2023-09-08T06:38:37;9.38;;;8.65;;
7903;SDS011;3997;48.416;8.512;2023-09-08T06:41:08;8.68;;;7.97;;
7903;SDS011;3997;48.416;8.512;2023-09-08T06:43:34;9.13;;;8.43;;
7903;SDS011;3997;48.416;8.512;2023-09-08T06:46:01;9.57;;;8.77;;
7903;SDS011;3997;48.416;8.512;2023-09-08T06:48:28;9.40;;;8.50;;
7903;SDS011;3997;48.416;8.512;2023-09-08T06:50:56;9.13;;;8.43;;
7903;SDS011;3997;48.416;8.512;2023-09-08T06:53:24;9.68;;;8.98;;
7903;SDS011;3997;48.416;8.512;2023-09-08T06:55:50;9.43;;;8.50;;
7903;SDS011;3997;48.416;8.512;2023-09-08T06:58:16;8.90;;;8.10;;
7903;SDS011;3997;48.416;8.512;2023-09-08T07:00:43;8.75;;;8.05;;
7903;SDS011;3997;48.416;8.512;2023-09-08T07:03:09;8.38;;;7.72;;
7903;SDS011;3997;48.416;8.512;2023-09-08T07:05:37;9.35;;;8.52;;
7903;SDS011;3997;48.416;8.512;2023-09-08T07:08:05;8.30;;;7.70;;
7903;SDS011;3997;48.416;8.512;2023-09-08T07:10:32;9.25;;;8.45;;
7903;SDS011;3997;48.416;8.512;2023-09-08T07:12:58;8.88;;;8.00;;
7903;SDS011;3997;48.416;8.512;2023-09-08T07:15:25;8.07;;;7.47;;
7903;SDS011;3997;48.416;8.512;2023-09-08T07:17:51;8.70;;;8.00;;
7903;SDS011;3997;48.416;8.512;2023-09-08T07:20:18;8.75;;;7.95;;
7903;SDS011;3997;48.416;8.512;2023-09-08T07:22:44;7.88;;;7.15;;
7903;SDS011;3997;48.416;8.512;2023-09-08T07:25:13;7.47;;;6.88;;
7903;SDS011;3997;48.416;8.512;2023-09-08T07:27:40;6.78;;;6.28;;
7903;SDS011;3997;48.416;8.512;2023-09-08T07:30:06;7.63;;;7.05;;
7903;SDS011;3997;48.416;8.512;2023-09-08T07:32:33;8.55;;;7.20;;
7903;SDS011;3997;48.416;8.512;2023-09-08T07:34:59;8.02;;;7.32;;
7903;SDS011;3997;48.416;8.512;2023-09-08T07:37:26;7.30;;;6.75;;
7903;SDS011;3997;48.416;8.512;2023-09-08T07:39:52;8.40;;;7.35;;
7903;SDS011;3997;48.416;8.512;2023-09-08T07:42:21;7.72;;;7.13;;
7903;SDS011;3997;48.416;8.512;2023-09-08T07:44:48;8.30;;;7.60;;
7903;SDS011;3997;48.416;8.512;2023-09-08T07:47:15;7.30;;;6.72;;
7903;SDS011;3997;48.416;8.512;2023-09-08T07:49:44;7.68;;;6.97;;
7903;SDS011;3997;48.416;8.512;2023-09-08T07:52:11;7.47;;;6.88;;
7903;SDS011;3997;48.416;8.512;2023-09-08T07:54:37;8.80;;;7.43;;
7903;SDS011;3997;48.416;8.512;2023-09-08T07:57:04;7.80;;;7.30;;
7903;SDS011;3997;48.416;8.512;2023-09-08T07:59:32;7.45;;;6.95;;
7903;SDS011;3997;48.416;8.512;2023-09-08T08:01:58;7.85;;;7.28;;
7903;SDS011;3997;48.416;8.512;2023-09-08T08:04:25;7.57;;;6.97;;
7903;SDS011;3997;48.416;8.512;2023-09-08T08:06:52;7.03;;;6.47;;
7903;SDS011;3997;48.416;8.512;2023-09-08T08:09:19;7.50;;;6.88;;
7903;SDS011;3997;48.416;8.512;2023-09-08T08:11:45;8.00;;;7.40;;
7903;SDS011;3997;48.416;8.512;2023-09-08T08:14:12;7.43;;;6.82;;
7903;SDS011;3997;48.416;8.512;2023-09-08T08:16:40;7.47;;;6.90;;
7903;SDS011;3997;48.416;8.512;2023-09-08T08:19:06;7.68;;;7.07;;
7903;SDS011;3997;48.416;8.512;2023-09-08T08:21:33;7.80;;;7.20;;
7903;SDS011;3997;48.416;8.512;2023-09-08T08:23:59;8.23;;;7.63;;
7903;SDS011;3997;48.416;8.512;2023-09-08T08:26:26;7.40;;;6.90;;
7903;SDS011;3997;48.416;8.512;2023-09-08T08:28:54;7.80;;;7.15;;
7903;SDS011;3997;48.416;8.512;2023-09-08T08:31:21;7.55;;;7.03;;
7903;SDS011;3997;48.416;8.512;2023-09-08T08:33:58;7.40;;;6.90;;
7903;SDS011;3997;48.416;8.512;2023-09-08T08:36:32;7.35;;;6.75;;
7903;SDS011;3997;48.416;8.512;2023-09-08T08:38:58;7.10;;;6.47;;
7903;SDS011;3997;48.416;8.512;2023-09-08T08:41:25;7.15;;;6.63;;
7903;SDS011;3997;48.416;8.512;2023-09-08T08:43:51;7.85;;;7.25;;
7903;SDS011;3997;48.416;8.512;2023-09-08T08:46:20;7.10;;;6.60;;
7903;SDS011;3997;48.416;8.512;2023-09-08T08:48:48;7.22;;;6.82;;
7903;SDS011;3997;48.416;8.512;2023-09-08T08:51:16;7.72;;;7.03;;
7903;SDS011;3997;48.416;8.512;2023-09-08T08:53:43;7.63;;;7.03;;
7903;SDS011;3997;48.416;8.512;2023-09-08T08:56:10;7.00;;;6.60;;
7903;SDS011;3997;48.416;8.512;2023-09-08T08:58:37;7.63;;;6.97;;
7903;SDS011;3997;48.416;8.512;2023-09-08T09:01:03;7.15;;;6.65;;
7903;SDS011;3997;48.416;8.512;2023-09-08T09:03:30;7.07;;;6.50;;
7903;SDS011;3997;48.416;8.512;2023-09-08T09:05:57;6.55;;;6.03;;
7903;SDS011;3997;48.416;8.512;2023-09-08T09:08:27;7.38;;;6.88;;
7903;SDS011;3997;48.416;8.512;2023-09-08T09:10:54;7.13;;;6.63;;
7903;SDS011;3997;48.416;8.512;2023-09-08T09:13:21;6.63;;;6.22;;
7903;SDS011;3997;48.416;8.512;2023-09-08T09:15:48;7.22;;;6.72;;
7903;SDS011;3997;48.416;8.512;2023-09-08T09:18:15;7.50;;;7.03;;
7903;SDS011;3997;48.416;8.512;2023-09-08T09:20:45;7.20;;;6.55;;
7903;SDS011;3997;48.416;8.512;2023-09-08T09:23:31;6.88;;;6.38;;
7903;SDS011;3997;48.416;8.512;2023-09-08T09:25:58;7.40;;;6.90;;
7903;SDS011;3997;48.416;8.512;2023-09-08T09:28:28;7.38;;;6.70;;
7903;SDS011;3997;48.416;8.512;2023-09-08T09:30:54;9.73;;;6.88;;
7903;SDS011;3997;48.416;8.512;2023-09-08T09:33:21;6.88;;;6.47;;
7903;SDS011;3997;48.416;8.512;2023-09-08T09:35:50;7.30;;;6.78;;
7903;SDS011;3997;48.416;8.512;2023-09-08T09:38:18;6.72;;;6.30;;
7903;SDS011;3997;48.416;8.512;2023-09-08T09:40:47;6.75;;;6.28;;
7903;SDS011;3997;48.416;8.512;2023-09-08T09:43:15;6.90;;;6.40;;
7903;SDS011;3997;48.416;8.512;2023-09-08T09:45:42;6.78;;;6.32;;
7903;SDS011;3997;48.416;8.512;2023-09-08T09:48:09;6.93;;;6.50;;
7903;SDS011;3997;48.416;8.512;2023-09-08T09:50:36;7.03;;;6.43;;
7903;SDS011;3997;48.416;8.512;2023-09-08T09:53:07;6.63;;;6.22;;
7903;SDS011;3997;48.416;8.512;2023-09-08T09:55:34;6.90;;;6.30;;
7903;SDS011;3997;48.416;8.512;2023-09-08T09:58:03;7.13;;;6.43;;
7903;SDS011;3997;48.416;8.512;2023-09-08T10:00:31;7.50;;;6.90;;
7903;SDS011;3997;48.416;8.512;2023-09-08T10:02:58;6.60;;;6.20;;
7903;SDS011;3997;48.416;8.512;2023-09-08T10:05:24;7.22;;;6.82;;
7903;SDS011;3997;48.416;8.512;2023-09-08T10:07:51;6.28;;;5.88;;
7903;SDS011;3997;48.416;8.512;2023-09-08T10:10:18;6.35;;;5.95;;
7903;SDS011;3997;48.416;8.512;2023-09-08T10:12:45;6.25;;;5.82;;
7903;SDS011;3997;48.416;8.512;2023-09-08T10:15:14;6.55;;;6.15;;
7903;SDS011;3997;48.416;8.512;2023-09-08T10:17:42;6.72;;;6.20;;
7903;SDS011;3997;48.416;8.512;2023-09-08T10:20:11;6.57;;;6.07;;
7903;SDS011;3997;48.416;8.512;2023-09-08T10:22:41;6.50;;;6.00;;
7903;SDS011;3997;48.416;8.512;2023-09-08T10:25:09;6.97;;;6.35;;
7903;SDS011;3997;48.416;8.512;2023-09-08T10:27:37;6.43;;;6.03;;
7903;SDS011;3997;48.416;8.512;2023-09-08T10:30:04;6.25;;;5.85;;
7903;SDS011;3997;48.416;8.512;2023-09-08T10:32:34;6.30;;;5.90;;
7903;SDS011;3997;48.416;8.512;2023-09-08T10:35:02;6.10;;;5.70;;
7903;SDS011;3997;48.416;8.512;2023-09-08T10:37:29;6.22;;;5.82;;
7903;SDS011;3997;48.416;8.512;2023-09-08T10:40:07;6.18;;;5.82;;
7903;SDS011;3997;48.416;8.512;2023-09-08T10:42:46;5.90;;;5.60;;
7903;SDS011;3997;48.416;8.512;2023-09-08T10:45:16;6.40;;;6.00;;
7903;SDS011;3997;48.416;8.512;2023-09-08T10:47:56;5.85;;;5.45;;
7903;SDS011;3997;48.416;8.512;2023-09-08T10:50:29;5.72;;;5.43;;
7903;SDS011;3997;48.416;8.512;2023-09-08T10:53:10;5.80;;;5.45;;
7903;SDS011;3997;48.416;8.512;2023-09-08T10:55:39;5.97;;;5.57;;
7903;SDS011;3997;48.416;8.512;2023-09-08T10:58:09;5.68;;;5.38;;
7903;SDS011;3997;48.416;8.512;2023-09-08T11:00:44;6.05;;;5.65;;
7903;SDS011;3997;48.416;8.512;2023-09-08T11:03:13;6.30;;;5.90;;
7903;SDS011;3997;48.416;8.512;2023-09-08T11:05:43;5.70;;;5.40;;
7903;SDS011;3997;48.416;8.512;2023-09-08T11:08:09;5.72;;;5.32;;
7903;SDS011;3997;48.416;8.512;2023-09-08T11:10:36;6.13;;;5.63;;
7903;SDS011;3997;48.416;8.512;2023-09-08T11:13:05;5.53;;;5.22;;
7903;SDS011;3997;48.416;8.512;2023-09-08T11:15:32;5.70;;;5.40;;
7903;SDS011;3997;48.416;8.512;2023-09-08T11:18:02;5.95;;;5.55;;
7903;SDS011;3997;48.416;8.512;2023-09-08T11:20:32;5.90;;;5.60;;
7903;SDS011;3997;48.416;8.512;2023-09-08T11:22:59;5.78;;;5.47;;
7903;SDS011;3997;48.416;8.512;2023-09-08T11:25:25;6.03;;;5.63;;
7903;SDS011;3997;48.416;8.512;2023-09-08T11:27:52;5.85;;;5.50;;
7903;SDS011;3997;48.416;8.512;2023-09-08T11:30:18;5.80;;;5.50;;
7903;SDS011;3997;48.416;8.512;2023-09-08T11:32:45;6.03;;;5.57;;
7903;SDS011;3997;48.416;8.512;2023-09-08T11:35:12;6.68;;;6.18;;
7903;SDS011;3997;48.416;8.512;2023-09-08T11:37:42;6.90;;;5.68;;
7903;SDS011;3997;48.416;8.512;2023-09-08T11:40:09;6.20;;;5.60;;
7903;SDS011;3997;48.416;8.512;2023-09-08T11:42:37;6.35;;;5.80;;
7903;SDS011;3997;48.416;8.512;2023-09-08T11:45:08;5.95;;;5.45;;
7903;SDS011;3997;48.416;8.512;2023-09-08T11:47:36;5.93;;;5.63;;
7903;SDS011;3997;48.416;8.512;2023-09-08T11:50:02;5.57;;;5.20;;
7903;SDS011;3997;48.416;8.512;2023-09-08T11:52:29;6.20;;;5.90;;
7903;SDS011;3997;48.416;8.512;2023-09-08T11:54:58;6.13;;;5.72;;
7903;SDS011;3997;48.416;8.512;2023-09-08T11:57:24;6.13;;;5.68;;
7903;SDS011;3997;48.416;8.512;2023-09-08T11:59:51;6.55;;;6.15;;
7903;SDS011;3997;48.416;8.512;2023-09-08T12:02:19;6.72;;;6.18;;
7903;SDS011;3997;48.416;8.512;2023-09-08T12:04:45;6.53;;;6.13;;
7903;SDS011;3997;48.416;8.512;2023-09-08T12:07:12;6.57;;;6.18;;
7903;SDS011;3997;48.416;8.512;2023-09-08T12:09:39;6.38;;;5.88;;
7903;SDS011;3997;48.416;8.512;2023-09-08T12:12:11;6.05;;;5.65;;
7903;SDS011;3997;48.416;8.512;2023-09-08T12:14:40;5.85;;;5.55;;
7903;SDS011;3997;48.416;8.512;2023-09-08T12:17:09;6.00;;;5.70;;
7903;SDS011;3997;48.416;8.512;2023-09-08T12:19:35;5.90;;;5.60;;
7903;SDS011;3997;48.416;8.512;2023-09-08T12:22:03;5.97;;;5.53;;
7903;SDS011;3997;48.416;8.512;2023-09-08T12:24:47;5.93;;;5.63;;
7903;SDS011;3997;48.416;8.512;2023-09-08T12:27:16;6.07;;;5.60;;
7903;SDS011;3997;48.416;8.512;2023-09-08T12:29:51;5.82;;;5.50;;
7903;SDS011;3997;48.416;8.512;2023-09-08T12:32:17;5.80;;;5.40;;
7903;SDS011;3997;48.416;8.512;2023-09-08T12:34:43;5.85;;;5.55;;
7903;SDS011;3997;48.416;8.512;2023-09-08T12:37:10;6.00;;;5.60;;
7903;SDS011;3997;48.416;8.512;2023-09-08T12:39:37;6.07;;;5.75;;
7903;SDS011;3997;48.416;8.512;2023-09-08T12:42:04;6.38;;;5.97;;
7903;SDS011;3997;48.416;8.512;2023-09-08T12:44:32;6.13;;;5.72;;
7903;SDS011;3997;48.416;8.512;2023-09-08T12:46:59;5.60;;;5.30;;
7903;SDS011;3997;48.416;8.512;2023-09-08T12:49:25;5.93;;;5.63;;
7903;SDS011;3997;48.416;8.512;2023-09-08T12:51:52;5.65;;;5.32;;
7903;SDS011;3997;48.416;8.512;2023-09-08T12:54:19;5.65;;;5.20;;
7903;SDS011;3997;48.416;8.512;2023-09-08T12:56:45;6.00;;;5.60;;
7903;SDS011;3997;48.416;8.512;2023-09-08T12:59:12;5.32;;;5.03;;
7903;SDS011;3997;48.416;8.512;2023-09-08T13:01:40;5.25;;;4.90;;
7903;SDS011;3997;48.416;8.512;2023-09-08T13:04:06;5.40;;;5.10;;
7903;SDS011;3997;48.416;8.512;2023-09-08T13:06:33;5.40;;;5.10;;
7903;SDS011;3997;48.416;8.512;2023-09-08T13:09:00;6.07;;;5.68;;
7903;SDS011;3997;48.416;8.512;2023-09-08T13:11:26;5.38;;;5.07;;
7903;SDS011;3997;48.416;8.512;2023-09-08T13:13:53;5.72;;;5.32;;
7903;SDS011;3997;48.416;8.512;2023-09-08T13:16:19;5.43;;;5.10;;
7903;SDS011;3997;48.416;8.512;2023-09-08T13:18:50;5.15;;;4.85;;
7903;SDS011;3997;48.416;8.512;2023-09-08T13:21:17;5.40;;;5.10;;
7903;SDS011;3997;48.416;8.512;2023-09-08T13:23:44;5.47;;;5.18;;
7903;SDS011;3997;48.416;8.512;2023-09-08T13:26:11;5.25;;;4.95;;
7903;SDS011;3997;48.416;8.512;2023-09-08T13:28:37;5.60;;;5.30;;
7903;SDS011;3997;48.416;8.512;2023-09-08T13:31:04;4.95;;;4.75;;
7903;SDS011;3997;48.416;8.512;2023-09-08T13:33:30;5.32;;;5.03;;
7903;SDS011;3997;48.416;8.512;2023-09-08T13:35:58;5.15;;;4.90;;
7903;SDS011;3997;48.416;8.512;2023-09-08T13:38:25;4.97;;;4.72;;
7903;SDS011;3997;48.416;8.512;2023-09-08T13:40:51;5.22;;;5.00;;
7903;SDS011;3997;48.416;8.512;2023-09-08T13:43:19;5.50;;;5.10;;
7903;SDS011;3997;48.416;8.512;2023-09-08T13:45:45;5.45;;;5.15;;
7903;SDS011;3997;48.416;8.512;2023-09-08T13:48:12;5.30;;;4.90;;
7903;SDS011;3997;48.416;8.512;2023-09-08T13:50:38;6.00;;;5.43;;
7903;SDS011;3997;48.416;8.512;2023-09-08T13:53:07;5.43;;;5.07;;
7903;SDS011;3997;48.416;8.512;2023-09-08T13:55:33;5.63;;;5.22;;
7903;SDS011;3997;48.416;8.512;2023-09-08T13:57:59;5.53;;;5.03;;
7903;SDS011;3997;48.416;8.512;2023-09-08T14:00:26;5.45;;;5.05;;
7903;SDS011;3997;48.416;8.512;2023-09-08T14:02:52;5.25;;;4.95;;
7903;SDS011;3997;48.416;8.512;2023-09-08T14:05:19;5.32;;;5.03;;
7903;SDS011;3997;48.416;8.512;2023-09-08T14:07:45;5.45;;;5.10;;
7903;SDS011;3997;48.416;8.512;2023-09-08T14:10:13;5.35;;;5.05;;
7903;SDS011;3997;48.416;8.512;2023-09-08T14:12:39;5.28;;;4.88;;
7903;SDS011;3997;48.416;8.512;2023-09-08T14:15:06;5.32;;;4.95;;
7903;SDS011;3997;48.416;8.512;2023-09-08T14:17:33;5.75;;;5.30;;
7903;SDS011;3997;48.416;8.512;2023-09-08T14:19:59;5.18;;;4.88;;
7903;SDS011;3997;48.416;8.512;2023-09-08T14:22:26;5.10;;;4.80;;
7903;SDS011;3997;48.416;8.512;2023-09-08T14:24:52;5.57;;;5.18;;
7903;SDS011;3997;48.416;8.512;2023-09-08T14:27:20;5.22;;;4.93;;
7903;SDS011;3997;48.416;8.512;2023-09-08T14:29:47;5.65;;;5.30;;
7903;SDS011;3997;48.416;8.512;2023-09-08T14:32:13;5.80;;;5.30;;
7903;SDS011;3997;48.416;8.512;2023-09-08T14:34:39;5.45;;;5.03;;
7903;SDS011;3997;48.416;8.512;2023-09-08T14:37:06;5.20;;;4.85;;
7903;SDS011;3997;48.416;8.512;2023-09-08T14:39:33;5.13;;;4.82;;
7903;SDS011;3997;48.416;8.512;2023-09-08T14:41:59;5.10;;;4.80;;
7903;SDS011;3997;48.416;8.512;2023-09-08T14:44:27;5.40;;;5.07;;
7903;SDS011;3997;48.416;8.512;2023-09-08T14:46:53;4.75;;;4.45;;
7903;SDS011;3997;48.416;8.512;2023-09-08T14:49:20;5.20;;;4.90;;
7903;SDS011;3997;48.416;8.512;2023-09-08T14:51:46;4.82;;;4.60;;
7903;SDS011;3997;48.416;8.512;2023-09-08T14:54:12;5.97;;;4.93;;
7903;SDS011;3997;48.416;8.512;2023-09-08T14:56:39;5.07;;;4.78;;
7903;SDS011;3997;48.416;8.512;2023-09-08T14:59:06;5.25;;;4.85;;
7903;SDS011;3997;48.416;8.512;2023-09-08T15:01:33;5.68;;;5.28;;
7903;SDS011;3997;48.416;8.512;2023-09-08T15:04:00;5.80;;;5.45;;
7903;SDS011;3997;48.416;8.512;2023-09-08T15:06:27;5.47;;;5.18;;
7903;SDS011;3997;48.416;8.512;2023-09-08T15:08:53;5.45;;;5.15;;
7903;SDS011;3997;48.416;8.512;2023-09-08T15:11:20;5.38;;;5.07;;
7903;SDS011;3997;48.416;8.512;2023-09-08T15:13:46;6.05;;;5.75;;
7903;SDS011;3997;48.416;8.512;2023-09-08T15:16:13;6.10;;;5.75;;
7903;SDS011;3997;48.416;8.512;2023-09-08T15:18:41;6.10;;;5.70;;